ANA984 RJCC-RJOO
Flight info
| Callsign | ANA984 |
|---|---|
| Flight time | N/A |
| Altitude | 38000 |
| Route | DALBI Y120 TAPPI Y12 ARIKA Y14 GOLDO Y381 KMC Y384 ROKKO |
| Aircraft | B772/H-SDE2E3FGHIJ5LORVWXY/LB1D1 |
Departure
| Time | N/A |
|---|---|
| Airport | New Chitose Airport (RJCC) |
Arrival
| Time | 2026-05-05 12:44 |
|---|---|
| Airport | Osaka Itami International Airport (RJOO) |
| Time | Latitude | Longitude | Altitude | Speed | Heading |
|---|---|---|---|---|---|
| 2026-05-05 11:25 | 41.29138 | 140.22207 | 38057 ft | 462 kts | 201° |
| 2026-05-05 11:25 | 41.22950 | 140.19947 | 38082 ft | 460 kts | 201° |
| 2026-05-05 11:26 | 41.16789 | 140.17698 | 38087 ft | 459 kts | 201° |
| 2026-05-05 11:26 | 41.10617 | 140.15474 | 38095 ft | 459 kts | 200° |
| 2026-05-05 11:27 | 41.04433 | 140.13340 | 38094 ft | 459 kts | 200° |
| 2026-05-05 11:27 | 40.98245 | 140.11222 | 38099 ft | 459 kts | 200° |
| 2026-05-05 11:28 | 40.92109 | 140.09113 | 38103 ft | 459 kts | 200° |
| 2026-05-05 11:28 | 40.85927 | 140.06986 | 38109 ft | 459 kts | 200° |
| 2026-05-05 11:29 | 40.79748 | 140.04863 | 38106 ft | 459 kts | 200° |
| 2026-05-05 11:29 | 40.73573 | 140.02747 | 38118 ft | 458 kts | 200° |
| 2026-05-05 11:30 | 40.67391 | 140.00632 | 38120 ft | 459 kts | 200° |
| 2026-05-05 11:30 | 40.61213 | 139.98522 | 38132 ft | 458 kts | 200° |
| 2026-05-05 11:31 | 40.55036 | 139.96417 | 38153 ft | 458 kts | 200° |
| 2026-05-05 11:31 | 40.48867 | 139.94318 | 38150 ft | 458 kts | 200° |
| 2026-05-05 11:32 | 40.42854 | 139.91750 | 38150 ft | 450 kts | 208° |
| 2026-05-05 11:32 | 40.37335 | 139.88108 | 38155 ft | 446 kts | 213° |
| 2026-05-05 11:33 | 40.31838 | 139.84347 | 38160 ft | 445 kts | 212° |
| 2026-05-05 11:33 | 40.26331 | 139.80623 | 38162 ft | 445 kts | 212° |
| 2026-05-05 11:34 | 40.20827 | 139.76927 | 38160 ft | 445 kts | 212° |
| 2026-05-05 11:34 | 40.15311 | 139.73230 | 38165 ft | 445 kts | 212° |
| 2026-05-05 11:35 | 40.09832 | 139.69563 | 38168 ft | 445 kts | 212° |
| 2026-05-05 11:35 | 40.04322 | 139.65885 | 38168 ft | 445 kts | 212° |
| 2026-05-05 11:36 | 39.98783 | 139.62263 | 38166 ft | 445 kts | 211° |
| 2026-05-05 11:36 | 39.93229 | 139.58669 | 38163 ft | 445 kts | 211° |
| 2026-05-05 11:37 | 39.87679 | 139.55078 | 38165 ft | 445 kts | 211° |
| 2026-05-05 11:37 | 39.82172 | 139.51512 | 38168 ft | 444 kts | 211° |
| 2026-05-05 11:38 | 39.76632 | 139.47930 | 38172 ft | 444 kts | 212° |
| 2026-05-05 11:38 | 39.71099 | 139.44358 | 38178 ft | 444 kts | 211° |
| 2026-05-05 11:39 | 39.65562 | 139.40790 | 38176 ft | 444 kts | 211° |
| 2026-05-05 11:39 | 39.60060 | 139.37251 | 38175 ft | 443 kts | 212° |
| 2026-05-05 11:40 | 39.54530 | 139.33701 | 38166 ft | 443 kts | 212° |
| 2026-05-05 11:40 | 39.49007 | 139.30162 | 38175 ft | 442 kts | 212° |
| 2026-05-05 11:41 | 39.43493 | 139.26635 | 38171 ft | 441 kts | 212° |
| 2026-05-05 11:41 | 39.37995 | 139.23124 | 38173 ft | 440 kts | 212° |
| 2026-05-05 11:42 | 39.32502 | 139.19622 | 38173 ft | 439 kts | 212° |
| 2026-05-05 11:42 | 39.27021 | 139.16135 | 38174 ft | 438 kts | 212° |
| 2026-05-05 11:43 | 39.21558 | 139.12665 | 38169 ft | 437 kts | 212° |
| 2026-05-05 11:43 | 39.16149 | 139.09235 | 38173 ft | 436 kts | 212° |
| 2026-05-05 11:44 | 39.10712 | 139.05793 | 38175 ft | 435 kts | 212° |
| 2026-05-05 11:44 | 39.05290 | 139.02366 | 38175 ft | 434 kts | 212° |
| 2026-05-05 11:45 | 38.99876 | 138.98951 | 38179 ft | 433 kts | 212° |
| 2026-05-05 11:45 | 38.94470 | 138.95547 | 38174 ft | 432 kts | 212° |
| 2026-05-05 11:46 | 38.89070 | 138.92151 | 38174 ft | 431 kts | 212° |
| 2026-05-05 11:46 | 38.83705 | 138.88784 | 38185 ft | 431 kts | 212° |
| 2026-05-05 11:47 | 38.78322 | 138.85411 | 38184 ft | 430 kts | 212° |
| 2026-05-05 11:47 | 38.72932 | 138.82039 | 38179 ft | 430 kts | 212° |
| 2026-05-05 11:48 | 38.64862 | 138.77002 | 38183 ft | 430 kts | 212° |
| 2026-05-05 11:48 | 38.59523 | 138.73676 | 38178 ft | 429 kts | 213° |
| 2026-05-05 11:49 | 38.54147 | 138.70333 | 38181 ft | 429 kts | 213° |
| 2026-05-05 11:49 | 38.48781 | 138.67002 | 38181 ft | 429 kts | 213° |
| 2026-05-05 11:50 | 38.43412 | 138.63673 | 38185 ft | 428 kts | 213° |
| 2026-05-05 11:50 | 38.38051 | 138.60356 | 38187 ft | 428 kts | 213° |
| 2026-05-05 11:51 | 38.32683 | 138.57040 | 38186 ft | 428 kts | 213° |
| 2026-05-05 11:51 | 38.27329 | 138.53737 | 38188 ft | 427 kts | 213° |
| 2026-05-05 11:52 | 38.22014 | 138.50464 | 38190 ft | 427 kts | 213° |
| 2026-05-05 11:52 | 38.16672 | 138.47179 | 38196 ft | 426 kts | 213° |
| 2026-05-05 11:53 | 38.11340 | 138.43905 | 38192 ft | 425 kts | 213° |
| 2026-05-05 11:53 | 38.06376 | 138.40011 | 38197 ft | 416 kts | 222° |
| 2026-05-05 11:54 | 38.01968 | 138.35355 | 38195 ft | 410 kts | 229° |
| 2026-05-05 11:54 | 37.97889 | 138.30301 | 38195 ft | 409 kts | 229° |
| 2026-05-05 11:55 | 37.93832 | 138.25239 | 38192 ft | 409 kts | 229° |
| 2026-05-05 11:55 | 37.89763 | 138.20194 | 38198 ft | 409 kts | 229° |
| 2026-05-05 11:56 | 37.85686 | 138.15164 | 38200 ft | 409 kts | 229° |
| 2026-05-05 11:56 | 37.81612 | 138.10153 | 38199 ft | 408 kts | 229° |
| 2026-05-05 11:57 | 37.77540 | 138.05153 | 38197 ft | 408 kts | 229° |
| 2026-05-05 11:57 | 37.73464 | 138.00157 | 38196 ft | 408 kts | 229° |
| 2026-05-05 11:58 | 37.69412 | 137.95197 | 38198 ft | 407 kts | 229° |
| 2026-05-05 11:58 | 37.65342 | 137.90224 | 38201 ft | 407 kts | 229° |
| 2026-05-05 11:59 | 37.61271 | 137.85257 | 38198 ft | 407 kts | 229° |
| 2026-05-05 11:59 | 37.57199 | 137.80296 | 38192 ft | 406 kts | 229° |
| 2026-05-05 12:00 | 37.53133 | 137.75352 | 38197 ft | 406 kts | 229° |
| 2026-05-05 12:00 | 37.49070 | 137.70419 | 38202 ft | 405 kts | 229° |
| 2026-05-05 12:01 | 37.45007 | 137.65493 | 38194 ft | 405 kts | 229° |
| 2026-05-05 12:01 | 37.40949 | 137.60580 | 38197 ft | 404 kts | 229° |
| 2026-05-05 12:02 | 37.36917 | 137.55708 | 38206 ft | 404 kts | 229° |
| 2026-05-05 12:02 | 37.32857 | 137.50809 | 38197 ft | 404 kts | 229° |
| 2026-05-05 12:03 | 37.28804 | 137.45926 | 38200 ft | 404 kts | 229° |
| 2026-05-05 12:03 | 37.25401 | 137.41833 | 38202 ft | 404 kts | 229° |
| 2026-05-05 12:04 | 37.21346 | 137.36962 | 38196 ft | 403 kts | 229° |
| 2026-05-05 12:04 | 37.17317 | 137.32130 | 38187 ft | 403 kts | 229° |
| 2026-05-05 12:05 | 37.13266 | 137.27280 | 38188 ft | 402 kts | 229° |
| 2026-05-05 12:05 | 37.09217 | 137.22439 | 38188 ft | 401 kts | 229° |
| 2026-05-05 12:06 | 37.05180 | 137.17619 | 38190 ft | 400 kts | 229° |
| 2026-05-05 12:06 | 37.01148 | 137.12813 | 38189 ft | 400 kts | 229° |
| 2026-05-05 12:07 | 36.97119 | 137.08017 | 38194 ft | 399 kts | 229° |
| 2026-05-05 12:07 | 36.93116 | 137.03260 | 38191 ft | 399 kts | 229° |
| 2026-05-05 12:08 | 36.89095 | 136.98486 | 38191 ft | 399 kts | 229° |
| 2026-05-05 12:08 | 36.85069 | 136.93715 | 38184 ft | 399 kts | 229° |
| 2026-05-05 12:09 | 36.81043 | 136.88954 | 38196 ft | 399 kts | 229° |
| 2026-05-05 12:09 | 36.77007 | 136.84197 | 38192 ft | 399 kts | 229° |
| 2026-05-05 12:10 | 36.72967 | 136.79440 | 38191 ft | 398 kts | 229° |
| 2026-05-05 12:10 | 36.68932 | 136.74695 | 38191 ft | 398 kts | 229° |
| 2026-05-05 12:11 | 36.64902 | 136.69962 | 38190 ft | 398 kts | 229° |
| 2026-05-05 12:11 | 36.60908 | 136.65278 | 38186 ft | 397 kts | 229° |
| 2026-05-05 12:12 | 36.56891 | 136.60574 | 38184 ft | 396 kts | 229° |
| 2026-05-05 12:12 | 36.52875 | 136.55878 | 38178 ft | 396 kts | 229° |
| 2026-05-05 12:13 | 36.48861 | 136.51191 | 38162 ft | 396 kts | 229° |
| 2026-05-05 12:13 | 36.44850 | 136.46512 | 38152 ft | 396 kts | 228° |
| 2026-05-05 12:14 | 36.40834 | 136.41847 | 38157 ft | 395 kts | 227° |
| 2026-05-05 12:14 | 36.36473 | 136.37614 | 38149 ft | 400 kts | 222° |
| 2026-05-05 12:15 | 36.31920 | 136.33654 | 38153 ft | 399 kts | 222° |
| 2026-05-05 12:15 | 36.27382 | 136.29690 | 38163 ft | 398 kts | 222° |
| 2026-05-05 12:16 | 36.22852 | 136.25728 | 38174 ft | 398 kts | 222° |
| 2026-05-05 12:16 | 36.18330 | 136.21775 | 38180 ft | 397 kts | 222° |
| 2026-05-05 12:17 | 36.13846 | 136.17863 | 38206 ft | 396 kts | 222° |
| 2026-05-05 12:17 | 36.09341 | 136.13938 | 38210 ft | 395 kts | 222° |
| 2026-05-05 12:18 | 36.04843 | 136.10021 | 38215 ft | 394 kts | 222° |
| 2026-05-05 12:18 | 36.00358 | 136.06120 | 38215 ft | 394 kts | 222° |
| 2026-05-05 12:19 | 35.95871 | 136.02221 | 38201 ft | 394 kts | 222° |
| 2026-05-05 12:19 | 35.91384 | 135.98328 | 38193 ft | 394 kts | 222° |
| 2026-05-05 12:20 | 35.86864 | 135.94408 | 37464 ft | 404 kts | 222° |
| 2026-05-05 12:20 | 35.84579 | 135.92431 | 36797 ft | 399 kts | 222° |
| 2026-05-05 12:20 | 35.82343 | 135.90499 | 35978 ft | 397 kts | 222° |
| 2026-05-05 12:21 | 35.80073 | 135.88539 | 35079 ft | 397 kts | 222° |
| 2026-05-05 12:21 | 35.77809 | 135.86585 | 34169 ft | 397 kts | 221° |
| 2026-05-05 12:21 | 35.75553 | 135.84637 | 33270 ft | 395 kts | 221° |
| 2026-05-05 12:21 | 35.73309 | 135.82704 | 32546 ft | 391 kts | 221° |
| 2026-05-05 12:22 | 35.71089 | 135.80793 | 31870 ft | 387 kts | 221° |
| 2026-05-05 12:22 | 35.68892 | 135.78901 | 31225 ft | 384 kts | 221° |
| 2026-05-05 12:22 | 35.66737 | 135.77046 | 30611 ft | 382 kts | 221° |
| 2026-05-05 12:22 | 35.64562 | 135.75174 | 29933 ft | 380 kts | 221° |
| 2026-05-05 12:23 | 35.62393 | 135.73307 | 29176 ft | 380 kts | 221° |
| 2026-05-05 12:23 | 35.60227 | 135.71445 | 28478 ft | 378 kts | 221° |
| 2026-05-05 12:23 | 35.58075 | 135.69596 | 27794 ft | 377 kts | 220° |
| 2026-05-05 12:23 | 35.55917 | 135.67743 | 27110 ft | 377 kts | 220° |
| 2026-05-05 12:24 | 35.53791 | 135.65921 | 26452 ft | 377 kts | 219° |
| 2026-05-05 12:24 | 35.51636 | 135.64075 | 25797 ft | 378 kts | 219° |
| 2026-05-05 12:24 | 35.49478 | 135.62226 | 25147 ft | 379 kts | 219° |
| 2026-05-05 12:24 | 35.47311 | 135.60368 | 24500 ft | 381 kts | 218° |
| 2026-05-05 12:25 | 35.45132 | 135.58498 | 23844 ft | 384 kts | 217° |
| 2026-05-05 12:25 | 35.42936 | 135.56617 | 23090 ft | 386 kts | 217° |
| 2026-05-05 12:25 | 35.40730 | 135.54730 | 22395 ft | 387 kts | 217° |
| 2026-05-05 12:25 | 35.38522 | 135.52842 | 21742 ft | 386 kts | 216° |
| 2026-05-05 12:26 | 35.36319 | 135.50960 | 21125 ft | 386 kts | 216° |
| 2026-05-05 12:26 | 35.34120 | 135.49082 | 20510 ft | 385 kts | 216° |
| 2026-05-05 12:26 | 35.31920 | 135.47203 | 19896 ft | 385 kts | 216° |
| 2026-05-05 12:26 | 35.29723 | 135.45329 | 19304 ft | 385 kts | 216° |
| 2026-05-05 12:27 | 35.27525 | 135.43455 | 18716 ft | 385 kts | 215° |
| 2026-05-05 12:27 | 35.25321 | 135.41578 | 18060 ft | 386 kts | 215° |
| 2026-05-05 12:27 | 35.23121 | 135.39705 | 17403 ft | 377 kts | 215° |
| 2026-05-05 12:27 | 35.21000 | 135.37899 | 16856 ft | 370 kts | 215° |
| 2026-05-05 12:28 | 35.18890 | 135.36106 | 16310 ft | 369 kts | 214° |
| 2026-05-05 12:28 | 35.16787 | 135.34319 | 15758 ft | 367 kts | 214° |
| 2026-05-05 12:28 | 35.14560 | 135.32904 | 15194 ft | 361 kts | 197° |
| 2026-05-05 12:28 | 35.12078 | 135.32511 | 14693 ft | 362 kts | 179° |
| 2026-05-05 12:29 | 35.09670 | 135.33022 | 14189 ft | 354 kts | 165° |
| 2026-05-05 12:29 | 35.07414 | 135.34231 | 13620 ft | 358 kts | 149° |
| 2026-05-05 12:29 | 35.05981 | 135.35545 | 13096 ft | 363 kts | 143° |
| 2026-05-05 12:29 | 35.04058 | 135.37552 | 12498 ft | 364 kts | 141° |
| 2026-05-05 12:30 | 35.02164 | 135.39549 | 11931 ft | 347 kts | 141° |
| 2026-05-05 12:30 | 35.00339 | 135.41454 | 11418 ft | 345 kts | 142° |
| 2026-05-05 12:30 | 34.98491 | 135.43344 | 10881 ft | 347 kts | 142° |
| 2026-05-05 12:30 | 34.96687 | 135.45166 | 10627 ft | 318 kts | 142° |
| 2026-05-05 12:31 | 34.95075 | 135.46790 | 10460 ft | 285 kts | 143° |
| 2026-05-05 12:31 | 34.93618 | 135.48260 | 10339 ft | 265 kts | 143° |
| 2026-05-05 12:31 | 34.92210 | 135.49663 | 10262 ft | 259 kts | 143° |
| 2026-05-05 12:31 | 34.90831 | 135.51041 | 10130 ft | 254 kts | 143° |
| 2026-05-05 12:32 | 34.89468 | 135.52404 | 10014 ft | 253 kts | 143° |
| 2026-05-05 12:32 | 34.88095 | 135.53777 | 9747 ft | 261 kts | 142° |
| 2026-05-05 12:32 | 34.86683 | 135.55224 | 9448 ft | 268 kts | 142° |
| 2026-05-05 12:32 | 34.85235 | 135.56679 | 9080 ft | 271 kts | 142° |
| 2026-05-05 12:33 | 34.83777 | 135.58138 | 8764 ft | 272 kts | 142° |
| 2026-05-05 12:33 | 34.82314 | 135.59601 | 8424 ft | 271 kts | 142° |
| 2026-05-05 12:33 | 34.80860 | 135.61050 | 8116 ft | 270 kts | 142° |
| 2026-05-05 12:33 | 34.79406 | 135.62507 | 7796 ft | 271 kts | 142° |
| 2026-05-05 12:34 | 34.77957 | 135.63961 | 7453 ft | 264 kts | 142° |
| 2026-05-05 12:34 | 34.76595 | 135.65329 | 7151 ft | 248 kts | 142° |
| 2026-05-05 12:34 | 34.75256 | 135.66666 | 6888 ft | 250 kts | 142° |
| 2026-05-05 12:34 | 34.73889 | 135.68009 | 6592 ft | 254 kts | 143° |
| 2026-05-05 12:35 | 34.72511 | 135.69370 | 6232 ft | 255 kts | 141° |
| 2026-05-05 12:35 | 34.71142 | 135.70768 | 5919 ft | 260 kts | 141° |
| 2026-05-05 12:35 | 34.69769 | 135.72150 | 5564 ft | 245 kts | 141° |
| 2026-05-05 12:35 | 34.68500 | 135.73422 | 5336 ft | 235 kts | 141° |
| 2026-05-05 12:36 | 34.67176 | 135.74638 | 5039 ft | 242 kts | 152° |
| 2026-05-05 12:36 | 34.65519 | 135.75074 | 4755 ft | 250 kts | 184° |
| 2026-05-05 12:36 | 34.63892 | 135.74336 | 4466 ft | 255 kts | 214° |
| 2026-05-05 12:36 | 34.62495 | 135.72999 | 4118 ft | 256 kts | 218° |
| 2026-05-05 12:37 | 34.61136 | 135.71693 | 4056 ft | 248 kts | 219° |
| 2026-05-05 12:37 | 34.60106 | 135.70141 | 3976 ft | 228 kts | 248° |
| 2026-05-05 12:37 | 34.59839 | 135.68257 | 4007 ft | 230 kts | 270° |
| 2026-05-05 12:37 | 34.60119 | 135.66378 | 3996 ft | 224 kts | 287° |
| 2026-05-05 12:38 | 34.60906 | 135.64783 | 3989 ft | 222 kts | 314° |
| 2026-05-05 12:38 | 34.61985 | 135.63496 | 3963 ft | 213 kts | 316° |
| 2026-05-05 12:38 | 34.63026 | 135.62299 | 3633 ft | 201 kts | 317° |
| 2026-05-05 12:38 | 34.64053 | 135.61118 | 3529 ft | 205 kts | 316° |
| 2026-05-05 12:39 | 34.65051 | 135.59933 | 3379 ft | 196 kts | 315° |
| 2026-05-05 12:39 | 34.65987 | 135.58804 | 3121 ft | 185 kts | 315° |
| 2026-05-05 12:39 | 34.66861 | 135.57747 | 2890 ft | 171 kts | 314° |
| 2026-05-05 12:39 | 34.67676 | 135.56759 | 2648 ft | 159 kts | 314° |
| 2026-05-05 12:40 | 34.68448 | 135.55824 | 2455 ft | 155 kts | 314° |
| 2026-05-05 12:40 | 34.69193 | 135.54923 | 2250 ft | 145 kts | 314° |
| 2026-05-05 12:40 | 34.69891 | 135.54075 | 2089 ft | 141 kts | 313° |
| 2026-05-05 12:40 | 34.70577 | 135.53244 | 1878 ft | 138 kts | 313° |
| 2026-05-05 12:41 | 34.71255 | 135.52421 | 1700 ft | 138 kts | 313° |
| 2026-05-05 12:41 | 34.71930 | 135.51602 | 1491 ft | 136 kts | 315° |
| 2026-05-05 12:41 | 34.72611 | 135.50788 | 1331 ft | 139 kts | 313° |
| 2026-05-05 12:41 | 34.73292 | 135.49938 | 1143 ft | 141 kts | 313° |
| 2026-05-05 12:42 | 34.73987 | 135.49098 | 929 ft | 141 kts | 315° |
| 2026-05-05 12:42 | 34.74665 | 135.48285 | 758 ft | 136 kts | 314° |
| 2026-05-05 12:42 | 34.75332 | 135.47478 | 620 ft | 134 kts | 315° |
| 2026-05-05 12:42 | 34.75993 | 135.46672 | 392 ft | 136 kts | 315° |
| 2026-05-05 12:43 | 34.76656 | 135.45869 | 245 ft | 133 kts | 316° |
| 2026-05-05 12:43 | 34.77314 | 135.45078 | 91 ft | 132 kts | 312° |
| 2026-05-05 12:43 | 34.77924 | 135.44332 | 47 ft | 111 kts | 315° |
| 2026-05-05 12:43 | 34.78363 | 135.43803 | 46 ft | 67 kts | 315° |
| 2026-05-05 12:44 | 34.78608 | 135.43557 | 46 ft | 37 kts | 333° |
| 2026-05-05 12:44 | 34.78794 | 135.43455 | 46 ft | 23 kts | 335° |
| 2026-05-05 12:44 | 34.78915 | 135.43427 | 46 ft | 6 kts | 4° |
| 2026-05-05 12:44 | 34.78918 | 135.43427 | 46 ft | 0 kts | 4° |
| 2026-05-05 12:46 | 34.78922 | 135.43428 | 47 ft | 3 kts | 4° |
| 2026-05-05 12:46 | 34.78963 | 135.43436 | 47 ft | 7 kts | 14° |
| 2026-05-05 12:47 | 34.79018 | 135.43466 | 48 ft | 11 kts | 33° |
| 2026-05-05 12:47 | 34.79063 | 135.43553 | 47 ft | 13 kts | 82° |
| 2026-05-05 12:47 | 34.79060 | 135.43663 | 46 ft | 13 kts | 95° |
| 2026-05-05 12:47 | 34.79034 | 135.43768 | 46 ft | 13 kts | 126° |
| 2026-05-05 12:48 | 34.78971 | 135.43848 | 46 ft | 13 kts | 136° |
| 2026-05-05 12:48 | 34.78907 | 135.43927 | 46 ft | 13 kts | 134° |
| 2026-05-05 12:48 | 34.78844 | 135.44005 | 46 ft | 13 kts | 135° |
| 2026-05-05 12:48 | 34.78782 | 135.44080 | 46 ft | 11 kts | 135° |
| 2026-05-05 12:49 | 34.78775 | 135.44159 | 46 ft | 10 kts | 73° |
| 2026-05-05 12:49 | 34.78801 | 135.44240 | 46 ft | 10 kts | 68° |
| 2026-05-05 12:49 | 34.78811 | 135.44271 | 46 ft | 0 kts | 68° |